createdAt,value
2018-06-04T21:57:05.972Z,23.10
2018-06-04T21:59:34.551Z,22.90
2018-06-04T22:02:03.122Z,22.80
2018-06-04T22:04:31.550Z,22.80
2018-06-04T22:06:59.978Z,22.70
2018-06-04T22:09:28.458Z,22.70
2018-06-04T22:11:56.960Z,22.70
2018-06-04T22:14:25.393Z,22.70
2018-06-04T22:16:54.031Z,22.60
2018-06-04T22:19:22.357Z,22.60
2018-06-04T22:21:50.802Z,22.60
2018-06-04T22:24:19.246Z,22.50
2018-06-04T22:26:47.707Z,22.40
2018-06-04T22:29:16.155Z,22.30
2018-06-04T22:31:44.631Z,22.30
2018-06-04T22:36:41.232Z,22.20
2018-06-04T22:39:09.775Z,22.20
2018-06-04T22:41:38.221Z,22.20
2018-06-04T22:44:06.682Z,22.10
2018-06-04T22:46:35.168Z,22.00
2018-06-04T22:49:06.855Z,22.00
2018-06-04T22:51:35.865Z,22.00
2018-06-04T22:54:04.911Z,21.90
2018-06-04T22:56:33.778Z,21.90
2018-06-04T22:59:02.275Z,22.00
2018-06-04T23:01:30.790Z,21.90
2018-06-04T23:03:59.291Z,21.90
2018-06-04T23:06:27.758Z,21.80
2018-06-04T23:08:56.174Z,21.80
2018-06-04T23:11:24.683Z,21.80
2018-06-04T23:13:54.187Z,21.80
2018-06-04T23:16:22.955Z,21.80
2018-06-04T23:18:51.414Z,21.80
2018-06-04T23:21:19.910Z,21.80
2018-06-04T23:23:48.369Z,21.70
2018-06-04T23:26:17.198Z,21.70
2018-06-04T23:28:46.107Z,21.70
2018-06-04T23:31:15.638Z,21.70
2018-06-04T23:33:44.093Z,21.70
2018-06-04T23:36:12.555Z,21.60
2018-06-04T23:38:41.006Z,21.60
2018-06-04T23:41:09.798Z,21.50
2018-06-04T23:43:38.294Z,21.40
2018-06-04T23:46:06.759Z,21.30
2018-06-04T23:48:35.199Z,21.30
2018-06-04T23:51:04.111Z,21.30
2018-06-04T23:53:32.564Z,21.30
2018-06-04T23:56:01.019Z,21.30
2018-06-04T23:58:29.490Z,21.20
